Time;durP1;ratioP1;P1;durP2;ratioP2;P2;SDS_P1;SDS_P2;PMS_P1;PMS_P2;Temp;Humidity;BMP_temperature;BMP_pressure;BME280_temperature;BME280_humidity;BME280_pressure;Samples;Min_cycle;Max_cycle;Signal;HPM_P1;HPM_P2
2021/05/03 00:00:19;;;;;;;22.93;13.93;;;;;;;4.27;100.00;100822.06;5093964;28;20209;-71
2021/05/03 00:02:44;;;;;;;26.20;13.47;;;;;;;4.27;100.00;100826.47;5108879;28;20491;-71
2021/05/03 00:05:24;;;;;;;19.93;13.43;;;;;;;4.31;100.00;100828.13;5093831;28;20208;-71
2021/05/03 00:07:50;;;;;;;20.87;12.87;;;;;;;4.32;100.00;100825.44;5093206;28;20211;-71
2021/05/03 00:10:15;;;;;;;22.67;14.20;;;;;;;4.33;100.00;100836.88;5093896;28;20202;-71
2021/05/03 00:12:42;;;;;;;21.10;12.23;;;;;;;4.34;100.00;100828.03;5092875;28;20222;-72
2021/05/03 00:15:08;;;;;;;23.47;13.33;;;;;;;4.35;100.00;100829.78;5109684;28;20641;-71
2021/05/03 00:17:33;;;;;;;16.43;11.10;;;;;;;4.36;100.00;100828.88;5093786;28;20181;-71
2021/05/03 00:19:59;;;;;;;27.27;12.17;;;;;;;4.35;100.00;100828.00;5094278;28;20166;-71
2021/05/03 00:22:24;;;;;;;16.33;10.40;;;;;;;4.37;100.00;100830.59;5094133;28;20177;-71
2021/05/03 00:24:49;;;;;;;14.27;10.47;;;;;;;4.38;100.00;100837.63;5092521;28;20209;-71
2021/05/03 00:27:15;;;;;;;12.77;8.83;;;;;;;4.37;100.00;100839.41;5075727;28;20174;-71
2021/05/03 00:29:40;;;;;;;11.43;7.50;;;;;;;4.27;100.00;100835.28;5094388;28;20185;-70
2021/05/03 00:32:05;;;;;;;9.63;7.17;;;;;;;4.26;100.00;100843.25;5093669;28;20662;-71
2021/05/03 00:34:31;;;;;;;7.97;5.10;;;;;;;4.25;100.00;100844.16;5093879;28;20162;-71
2021/05/03 00:36:56;;;;;;;10.53;5.90;;;;;;;4.15;100.00;100842.66;5093800;28;20166;-71
2021/05/03 00:39:21;;;;;;;6.70;5.57;;;;;;;4.11;100.00;100841.88;5092530;28;20170;-71
2021/05/03 00:41:46;;;;;;;11.93;6.73;;;;;;;4.10;100.00;100847.22;5092783;28;20201;-71
2021/05/03 00:44:12;;;;;;;7.27;5.40;;;;;;;4.15;100.00;100842.66;5093891;28;20286;-71
2021/05/03 00:46:39;;;;;;;11.43;6.20;;;;;;;4.03;100.00;100849.97;5092612;28;20189;-71
2021/05/03 00:49:05;;;;;;;11.27;6.97;;;;;;;4.09;100.00;100851.63;5093823;28;20170;-71
2021/05/03 00:51:30;;;;;;;14.47;7.17;;;;;;;4.15;100.00;100846.19;5093265;28;20242;-71
2021/05/03 00:53:55;;;;;;;10.03;6.40;;;;;;;4.18;100.00;100854.03;5093546;28;20200;-70
2021/05/03 00:56:21;;;;;;;13.70;6.40;;;;;;;4.20;100.00;100849.56;5092574;28;20185;-70
2021/05/03 00:58:46;;;;;;;12.27;6.50;;;;;;;4.21;100.00;100850.44;5092859;28;20185;-71
2021/05/03 01:01:11;;;;;;;11.93;5.93;;;;;;;4.24;100.00;100845.94;5093185;28;20192;-71
2021/05/03 01:03:37;;;;;;;8.60;5.70;;;;;;;4.25;100.00;100842.38;5076036;28;20174;-71
2021/05/03 01:06:02;;;;;;;7.30;4.70;;;;;;;4.24;100.00;100847.69;5093540;28;20181;-71
2021/05/03 01:08:27;;;;;;;7.50;5.00;;;;;;;4.16;100.00;100854.97;5093569;28;20649;-72
2021/05/03 01:10:52;;;;;;;5.97;4.20;;;;;;;4.10;100.00;100850.72;5093733;28;20201;-73
2021/05/03 01:13:18;;;;;;;8.57;5.30;;;;;;;4.13;100.00;100857.69;5093618;28;20177;-71
2021/05/03 01:15:43;;;;;;;8.20;6.23;;;;;;;4.16;100.00;100849.69;5079396;28;20171;-71
2021/05/03 01:18:09;;;;;;;8.93;6.10;;;;;;;4.15;100.00;100856.75;5096271;28;20181;-73
2021/05/03 01:20:36;;;;;;;10.27;7.20;;;;;;;4.26;100.00;100862.59;5098695;28;20194;-72
2021/05/03 01:23:03;;;;;;;10.53;8.37;;;;;;;4.31;100.00;100860.69;5099930;28;20622;-72
2021/05/03 01:25:32;;;;;;;16.33;9.83;;;;;;;4.39;100.00;100853.44;5098239;28;20198;-71
2021/05/03 01:27:59;;;;;;;12.50;9.90;;;;;;;4.43;100.00;100861.28;5098386;28;20541;-72
2021/05/03 01:30:47;;;;;;;14.73;10.23;;;;;;;4.43;100.00;100867.44;5079044;28;20194;-72
2021/05/03 01:33:14;;;;;;;16.70;10.53;;;;;;;4.44;100.00;100855.94;5097355;28;20155;-72
2021/05/03 01:35:42;;;;;;;14.10;10.13;;;;;;;4.37;100.00;100859.66;5079692;28;20641;-72
2021/05/03 01:38:07;;;;;;;15.07;10.67;;;;;;;4.35;100.00;100875.56;5096945;28;20651;-72
2021/05/03 01:40:34;;;;;;;15.30;9.90;;;;;;;4.40;100.00;100862.22;5097240;28;20225;-72
2021/05/03 01:43:10;;;;;;;14.00;9.97;;;;;;;4.36;100.00;100865.84;5097246;28;20303;-72
2021/05/03 01:45:37;;;;;;;15.17;9.93;;;;;;;4.30;100.00;100868.66;5096176;28;20185;-72
2021/05/03 01:48:03;;;;;;;12.53;9.90;;;;;;;4.32;100.00;100872.13;5096886;28;20178;-72
2021/05/03 01:50:28;;;;;;;17.23;10.17;;;;;;;4.24;100.00;100876.75;5096636;28;20217;-72
2021/05/03 01:52:53;;;;;;;18.03;10.50;;;;;;;4.23;100.00;100880.31;5095525;28;20622;-72
2021/05/03 01:55:20;;;;;;;17.53;10.33;;;;;;;4.31;100.00;100871.28;5096864;28;20178;-72
2021/05/03 01:57:45;;;;;;;11.47;8.63;;;;;;;4.32;100.00;100882.72;5095858;28;20170;-72
2021/05/03 02:00:11;;;;;;;13.83;7.60;;;;;;;4.25;100.00;100875.84;5096722;28;20649;-72
2021/05/03 02:02:37;;;;;;;11.33;8.43;;;;;;;4.24;100.00;100875.00;5096702;28;20653;-71
2021/05/03 02:05:03;;;;;;;12.47;7.30;;;;;;;4.26;100.00;100877.59;5095479;28;20245;-72
2021/05/03 02:07:28;;;;;;;11.50;7.77;;;;;;;4.21;100.00;100876.84;5095476;28;20174;-72
2021/05/03 02:09:54;;;;;;;13.33;7.40;;;;;;;4.22;100.00;100881.22;5096056;28;20170;-71
2021/05/03 02:12:19;;;;;;;15.20;7.40;;;;;;;4.24;100.00;100874.13;5095657;28;20209;-72
2021/05/03 02:14:45;;;;;;;12.63;7.00;;;;;;;4.24;100.00;100882.06;5096856;28;20542;-71
2021/05/03 02:17:11;;;;;;;11.13;7.33;;;;;;;4.21;100.00;100887.41;5096769;28;20178;-72
2021/05/03 02:19:36;;;;;;;16.63;7.00;;;;;;;4.17;100.00;100881.34;5096463;28;20531;-71
2021/05/03 02:22:02;;;;;;;12.93;6.80;;;;;;;4.15;100.00;100879.66;5096545;28;20202;-71
2021/05/03 02:24:28;;;;;;;13.00;6.90;;;;;;;4.16;100.00;100882.25;5094040;28;20221;-71
2021/05/03 02:26:53;;;;;;;9.20;6.00;;;;;;;4.16;100.00;100876.09;5096481;28;20170;-72
2021/05/03 02:29:18;;;;;;;10.67;5.87;;;;;;;4.07;100.00;100877.19;5095077;28;20174;-72
2021/05/03 02:31:44;;;;;;;9.77;6.30;;;;;;;4.12;100.00;100885.88;5078049;28;20199;-71
2021/05/03 02:34:09;;;;;;;11.70;6.23;;;;;;;4.08;100.00;100873.63;5094656;28;20216;-71
2021/05/03 02:36:34;;;;;;;7.20;5.33;;;;;;;4.05;100.00;100874.59;5078884;28;20227;-71
2021/05/03 02:38:59;;;;;;;10.80;6.00;;;;;;;4.03;100.00;100880.81;5094903;28;20166;-72
2021/05/03 02:41:25;;;;;;;8.93;5.77;;;;;;;3.99;100.00;100890.59;5095925;28;20190;-72
2021/05/03 02:43:50;;;;;;;12.93;5.90;;;;;;;4.01;100.00;100877.34;5094797;28;20530;-71
2021/05/03 02:46:15;;;;;;;12.53;5.57;;;;;;;4.01;100.00;100882.63;5094521;28;20175;-72
2021/05/03 02:48:41;;;;;;;9.60;6.03;;;;;;;4.04;100.00;100887.81;5095930;28;20179;-72
2021/05/03 02:51:06;;;;;;;10.20;5.67;;;;;;;4.00;100.00;100886.16;5095639;28;20238;-72
2021/05/03 02:53:31;;;;;;;10.83;5.50;;;;;;;3.98;100.00;100886.22;5094554;28;20714;-72
2021/05/03 02:55:57;;;;;;;13.27;5.30;;;;;;;3.99;100.00;100885.31;5094340;28;20624;-71
2021/05/03 02:58:22;;;;;;;10.70;5.63;;;;;;;3.94;100.00;100887.19;5077354;28;20642;-73
2021/05/03 03:00:47;;;;;;;12.10;5.83;;;;;;;3.94;100.00;100892.47;5095900;28;20204;-71
2021/05/03 03:03:13;;;;;;;7.67;5.93;;;;;;;3.90;100.00;100887.31;5096629;28;20168;-72
2021/05/03 03:05:38;;;;;;;7.47;5.10;;;;;;;3.85;100.00;100897.13;5095534;28;20554;-72
2021/05/03 03:08:04;;;;;;;11.20;5.90;;;;;;;3.82;100.00;100882.22;5095052;28;20193;-73
2021/05/03 03:10:30;;;;;;;9.63;5.50;;;;;;;3.86;100.00;100889.16;5095448;28;20208;-73
2021/05/03 03:12:56;;;;;;;14.37;5.70;;;;;;;3.84;100.00;100895.38;5077155;28;20654;-72
2021/05/03 03:15:23;;;;;;;9.70;7.10;;;;;;;3.76;100.00;100888.53;5094694;28;20169;-73
2021/05/03 03:17:50;;;;;;;10.57;5.90;;;;;;;3.79;100.00;100899.91;5094014;28;20177;-73
2021/05/03 03:20:16;;;;;;;13.43;7.50;;;;;;;3.76;100.00;100893.81;5094166;28;20260;-72
2021/05/03 03:22:42;;;;;;;7.23;5.57;;;;;;;3.77;100.00;100894.69;5077167;28;20197;-73
2021/05/03 03:25:07;;;;;;;17.70;7.17;;;;;;;3.82;100.00;100892.78;5095096;28;20339;-72
2021/05/03 03:27:33;;;;;;;10.70;6.73;;;;;;;3.77;100.00;100897.31;5095021;28;20588;-72
2021/05/03 03:29:58;;;;;;;15.23;8.10;;;;;;;3.75;100.00;100902.63;5094040;28;20185;-72
2021/05/03 03:32:24;;;;;;;18.20;6.30;;;;;;;3.73;100.00;100893.88;5077017;28;20177;-73
2021/05/03 03:34:49;;;;;;;12.20;6.57;;;;;;;3.72;100.00;100897.44;5093400;28;20265;-74
2021/05/03 03:37:14;;;;;;;13.10;7.27;;;;;;;3.78;100.00;100901.69;5094947;28;20178;-72
2021/05/03 03:39:40;;;;;;;13.07;6.43;;;;;;;3.78;100.00;100901.69;5094012;28;20259;-72
2021/05/03 03:42:05;;;;;;;10.23;7.07;;;;;;;3.75;100.00;100891.22;5094565;28;20196;-73
2021/05/03 03:44:30;;;;;;;10.93;7.30;;;;;;;3.77;100.00;100894.69;5077307;28;20194;-73
2021/05/03 03:46:55;;;;;;;10.97;6.67;;;;;;;3.75;100.00;100896.50;5094855;28;20660;-72
2021/05/03 03:49:21;;;;;;;9.63;7.40;;;;;;;3.78;100.00;100893.78;5093900;28;20638;-72
2021/05/03 03:51:46;;;;;;;15.57;6.70;;;;;;;3.79;100.00;100898.16;5114602;22;20766;-74
2021/05/03 03:54:11;;;;;;;16.57;7.60;;;;;;;3.68;100.00;100902.78;5094183;28;20638;-73
2021/05/03 03:56:37;;;;;;;17.70;8.40;;;;;;;3.80;100.00;100905.16;5092738;28;20170;-74
2021/05/03 03:59:02;;;;;;;17.93;6.47;;;;;;;3.86;100.00;100905.00;5094367;28;20185;-74
2021/05/03 04:01:30;;;;;;;14.60;6.57;;;;;;;3.79;100.00;100898.16;5073149;28;20220;-73
2021/05/03 04:04:01;;;;;;;13.27;7.50;;;;;;;3.75;100.00;100897.34;5073055;28;20190;-74
2021/05/03 04:06:43;;;;;;;14.07;6.63;;;;;;;3.77;100.00;100905.25;5074259;28;20159;-74
2021/05/03 04:09:12;;;;;;;16.50;8.40;;;;;;;3.76;100.00;100903.50;5073082;28;20170;-73
2021/05/03 04:12:08;;;;;;;10.47;6.10;;;;;;;3.84;100.00;100925.31;5072867;28;20205;-74
2021/05/03 04:23:05;;;;;;;13.87;7.17;;;;;;;3.80;100.00;100914.84;5073846;28;20243;-74
2021/05/03 04:25:35;;;;;;;12.10;7.27;;;;;;;3.74;100.00;100913.22;5074020;28;20190;-74
2021/05/03 04:28:01;;;;;;;11.67;7.47;;;;;;;3.76;100.00;100924.63;5074041;28;20165;-74
2021/05/03 04:30:26;;;;;;;9.43;6.20;;;;;;;3.81;100.00;100916.59;5072785;28;20183;-73
2021/05/03 04:32:52;;;;;;;12.67;6.80;;;;;;;3.81;100.00;100928.03;5072510;28;20266;-73
2021/05/03 04:35:17;;;;;;;10.07;6.53;;;;;;;3.69;100.00;100923.00;5072612;28;20174;-71
2021/05/03 04:37:42;;;;;;;13.87;7.07;;;;;;;3.79;100.00;100918.41;5073056;28;20578;-73
2021/05/03 04:40:08;;;;;;;10.37;7.00;;;;;;;3.85;100.00;100932.31;5074181;28;20204;-72
2021/05/03 04:42:33;;;;;;;16.67;7.20;;;;;;;3.86;100.00;100920.84;5073721;28;20198;-73
2021/05/03 04:44:59;;;;;;;9.70;6.93;;;;;;;3.92;100.00;100927.75;5073987;28;20238;-75
2021/05/03 04:47:24;;;;;;;14.60;7.97;;;;;;;3.88;100.00;100929.59;5089752;28;20185;-73
2021/05/03 04:49:49;;;;;;;17.73;7.77;;;;;;;3.88;100.00;100932.25;5073564;28;20294;-73
2021/05/03 04:52:15;;;;;;;12.27;7.30;;;;;;;3.87;100.00;100949.00;5075780;28;20213;-74
2021/05/03 04:54:40;;;;;;;13.80;6.80;;;;;;;3.89;100.00;100935.75;5076541;28;20174;-74
2021/05/03 04:57:06;;;;;;;20.03;7.90;;;;;;;3.86;100.00;100931.41;5077682;28;20175;-75
2021/05/03 04:59:31;;;;;;;11.53;7.83;;;;;;;3.81;100.00;100938.59;5075015;28;20185;-75
2021/05/03 05:01:56;;;;;;;12.63;7.20;;;;;;;3.83;100.00;100931.50;5073052;28;20198;-74
2021/05/03 05:04:22;;;;;;;12.23;7.63;;;;;;;3.79;100.00;100935.09;5073101;28;20193;-74
2021/05/03 05:06:47;;;;;;;11.13;7.30;;;;;;;3.81;100.00;100933.31;5072683;28;20179;-73
2021/05/03 05:09:12;;;;;;;15.07;8.70;;;;;;;3.85;100.00;100940.25;5072848;28;20190;-74
2021/05/03 05:11:38;;;;;;;15.37;7.63;;;;;;;3.87;100.00;100938.44;5072788;28;20570;-73
2021/05/03 05:14:03;;;;;;;13.50;8.27;;;;;;;3.79;100.00;100950.94;5072912;28;20661;-74
2021/05/03 05:16:29;;;;;;;12.03;8.27;;;;;;;3.74;100.00;100935.22;5074048;28;20170;-74
2021/05/03 05:18:54;;;;;;;15.37;8.90;;;;;;;3.80;100.00;100955.31;5073891;28;20213;-76
2021/05/03 05:21:20;;;;;;;17.03;8.67;;;;;;;3.83;100.00;100939.41;5075533;28;20202;-75
2021/05/03 05:23:45;;;;;;;11.77;8.43;;;;;;;3.90;100.00;100943.63;5073569;28;20661;-74
2021/05/03 05:26:10;;;;;;;14.37;8.67;;;;;;;3.88;100.00;100939.31;5076445;28;20175;-75
2021/05/03 05:28:36;;;;;;;18.20;8.60;;;;;;;3.98;100.00;100940.81;5074607;28;20182;-74
2021/05/03 05:31:02;;;;;;;16.40;8.57;;;;;;;3.99;100.00;100953.97;5074682;28;20698;-76
2021/05/03 05:33:28;;;;;;;16.90;8.80;;;;;;;3.98;100.00;100948.72;5073079;28;20197;-75
2021/05/03 05:35:53;;;;;;;14.90;8.70;;;;;;;4.03;100.00;100938.91;5074930;28;20183;-75
2021/05/03 05:38:18;;;;;;;13.30;8.03;;;;;;;4.02;100.00;100942.47;5074839;28;20642;-76
2021/05/03 05:40:44;;;;;;;16.87;7.80;;;;;;;4.00;98.48;100926.66;5075573;28;20199;-75
2021/05/03 05:43:10;;;;;;;14.77;7.47;;;;;;;3.98;97.73;100954.88;5075048;28;20193;-76
2021/05/03 05:45:35;;;;;;;13.10;8.67;;;;;;;4.11;98.53;100951.97;5074916;28;20230;-75
2021/05/03 05:48:00;;;;;;;13.07;8.03;;;;;;;4.07;97.43;100959.06;5079190;28;20186;-74
2021/05/03 05:50:26;;;;;;;13.70;7.80;;;;;;;4.12;97.03;100945.78;5096788;28;20577;-75
2021/05/03 05:52:51;;;;;;;8.07;6.40;;;;;;;4.28;96.05;100960.31;5081360;28;20179;-77
2021/05/03 05:55:16;;;;;;;7.40;5.50;;;;;;;4.28;94.02;100942.69;5079783;28;20167;-75
2021/05/03 05:57:42;;;;;;;10.67;6.07;;;;;;;4.24;94.28;100951.63;5081180;28;20186;-77
2021/05/03 06:00:08;;;;;;;11.43;6.37;;;;;;;4.27;94.55;100977.09;5079284;28;20206;-77
2021/05/03 06:02:33;;;;;;;10.37;5.17;;;;;;;4.37;91.90;100955.66;5083748;28;20232;-75
2021/05/03 06:04:58;;;;;;;8.10;4.97;;;;;;;4.46;90.85;100948.41;5078629;28;20195;-76
2021/05/03 06:07:23;;;;;;;17.10;4.80;;;;;;;4.42;91.23;100963.47;5096038;28;20178;-76
2021/05/03 06:09:49;;;;;;;7.07;4.90;;;;;;;4.41;90.70;100980.25;5076945;28;20661;-76
2021/05/03 06:12:14;;;;;;;10.40;4.67;;;;;;;4.36;89.44;100975.06;5079853;28;20191;-77
2021/05/03 06:14:40;;;;;;;7.23;4.60;;;;;;;4.37;89.68;100976.81;5078046;28;20186;-75
2021/05/03 06:17:05;;;;;;;5.97;3.97;;;;;;;4.30;88.66;100959.38;5079452;28;20543;-75
2021/05/03 06:19:30;;;;;;;7.67;4.30;;;;;;;4.18;88.59;100969.41;5078057;28;20174;-76
2021/05/03 06:21:55;;;;;;;11.00;5.00;;;;;;;4.11;89.07;100978.38;5078562;28;20202;-76
2021/05/03 06:24:21;;;;;;;8.27;4.40;;;;;;;4.15;89.26;100972.13;5093505;28;20678;-77
2021/05/03 06:26:46;;;;;;;6.90;4.50;;;;;;;4.18;89.26;100970.25;5077522;28;20178;-75
2021/05/03 06:29:12;;;;;;;9.20;5.03;;;;;;;4.27;89.04;100967.38;5076129;28;20241;-76
2021/05/03 06:31:37;;;;;;;9.30;5.70;;;;;;;4.37;88.95;100991.78;5075913;28;20194;-77
2021/05/03 06:34:02;;;;;;;6.70;4.00;;;;;;;4.47;86.57;100979.25;5076158;28;20637;-77
2021/05/03 06:36:28;;;;;;;8.00;3.93;;;;;;;4.56;86.08;100971.06;5076377;28;20222;-76
2021/05/03 06:38:53;;;;;;;6.33;4.17;;;;;;;4.65;84.92;100990.19;5075697;28;20179;-76
2021/05/03 06:41:18;;;;;;;6.83;3.83;;;;;;;4.73;85.04;100984.69;5076337;28;20557;-77
2021/05/03 06:43:44;;;;;;;6.03;3.83;;;;;;;4.85;84.50;100996.75;5077663;28;20167;-77
2021/05/03 06:46:09;;;;;;;7.33;3.97;;;;;;;4.94;83.46;100991.22;5076588;28;20265;-77
2021/05/03 06:48:35;;;;;;;10.37;3.77;;;;;;;4.99;83.10;100997.25;5078968;28;20171;-78
2021/05/03 06:51:00;;;;;;;8.87;3.27;;;;;;;5.07;82.11;101008.47;5084659;28;20217;-76
2021/05/03 06:53:25;;;;;;;5.53;3.40;;;;;;;5.20;81.05;100990.47;5077394;28;20174;-77
2021/05/03 06:55:51;;;;;;;8.27;4.17;;;;;;;5.21;82.29;100989.59;5093251;28;20171;-77
2021/05/03 06:58:16;;;;;;;9.33;4.33;;;;;;;5.37;82.01;100982.06;5059835;28;20185;-77
2021/05/03 07:00:42;;;;;;;12.23;4.03;;;;;;;5.45;80.77;100988.00;5078095;28;20720;-76
2021/05/03 07:03:08;;;;;;;4.87;3.03;;;;;;;5.40;80.16;100997.84;5078561;28;20266;-76
2021/05/03 07:05:34;;;;;;;4.17;3.33;;;;;;;5.31;79.98;100994.56;5078164;28;20546;-76
2021/05/03 07:07:59;;;;;;;3.17;2.87;;;;;;;5.23;80.46;101001.84;5077365;28;20202;-77
2021/05/03 07:10:25;;;;;;;7.13;2.80;;;;;;;5.18;80.93;101000.22;5077828;28;20171;-76
2021/05/03 07:12:50;;;;;;;6.43;3.10;;;;;;;5.33;80.66;100992.75;5078191;28;20171;-77
2021/05/03 07:15:16;;;;;;;8.40;3.33;;;;;;;5.32;80.11;100993.66;5076004;28;20171;-77
2021/05/03 07:17:42;;;;;;;6.77;3.63;;;;;;;5.26;79.83;101020.28;5079588;28;20178;-76
2021/05/03 07:20:09;;;;;;;9.17;3.23;;;;;;;5.29;80.57;101011.41;5080620;28;20167;-79
2021/05/03 07:22:34;;;;;;;7.97;3.30;;;;;;;5.29;79.63;101001.69;5095396;28;20301;-76
2021/05/03 07:25:05;;;;;;;6.03;3.60;;;;;;;5.37;80.54;101000.59;5079112;28;20284;-77
2021/05/03 07:27:30;;;;;;;8.13;3.37;;;;;;;5.40;80.36;101011.09;5077067;28;20204;-77
2021/05/03 07:29:56;;;;;;;5.10;2.87;;;;;;;5.36;80.62;101002.38;5077546;28;20171;-77
2021/05/03 07:32:21;;;;;;;7.87;3.47;;;;;;;5.38;79.95;100991.72;5076764;28;20198;-74
2021/05/03 07:34:46;;;;;;;4.87;3.03;;;;;;;5.43;80.47;101005.69;5079279;28;20535;-77
2021/05/03 07:37:12;;;;;;;5.20;3.20;;;;;;;5.54;79.86;101003.59;5078285;28;20179;-77
2021/05/03 07:39:37;;;;;;;6.80;2.93;;;;;;;5.66;78.99;101005.91;5077950;28;20179;-77
2021/05/03 07:42:03;;;;;;;4.80;2.90;;;;;;;5.80;77.96;101000.19;5078575;28;20210;-76
2021/05/03 07:44:28;;;;;;;5.20;2.83;;;;;;;5.93;77.63;101007.72;5077430;28;20197;-77
2021/05/03 07:46:54;;;;;;;6.53;2.77;;;;;;;6.18;77.24;101006.97;5076992;28;20179;-77
2021/05/03 07:49:19;;;;;;;4.47;2.20;;;;;;;6.33;76.21;101005.63;5085817;28;20175;-76
2021/05/03 07:51:45;;;;;;;7.23;3.13;;;;;;;6.51;75.32;101008.50;5084956;28;20285;-76
2021/05/03 07:54:10;;;;;;;10.37;3.63;;;;;;;6.80;74.71;101004.00;5079900;28;20221;-76
2021/05/03 07:56:35;;;;;;;3.93;2.70;;;;;;;6.77;74.02;101033.31;5076056;28;20174;-77
2021/05/03 07:59:01;;;;;;;3.47;2.37;;;;;;;6.58;73.61;101023.31;5077088;28;20186;-76
2021/05/03 08:01:26;;;;;;;3.43;2.10;;;;;;;6.47;74.98;101011.31;5076504;28;20563;-76
2021/05/03 08:03:51;;;;;;;3.97;2.47;;;;;;;6.43;75.16;101015.88;5080068;28;20166;-78
2021/05/03 08:06:17;;;;;;;6.97;2.67;;;;;;;6.39;75.17;101030.13;5077646;28;20231;-75
2021/05/03 08:08:44;;;;;;;4.97;2.50;;;;;;;6.32;76.04;101010.06;5076732;28;20174;-76
2021/05/03 08:11:10;;;;;;;6.23;2.57;;;;;;;6.31;75.31;101010.94;5076241;28;20186;-76
2021/05/03 08:13:35;;;;;;;6.20;2.50;;;;;;;6.23;75.04;101024.44;5075844;28;20177;-76
2021/05/03 08:16:02;;;;;;;5.50;2.40;;;;;;;6.17;75.46;101024.66;5076736;28;20159;-75
2021/05/03 08:18:28;;;;;;;3.80;2.40;;;;;;;6.25;74.63;101027.06;5075800;28;20615;-76
2021/05/03 08:20:54;;;;;;;4.17;1.87;;;;;;;6.33;73.88;101038.31;5075256;28;20203;-76
2021/05/03 08:23:20;;;;;;;5.87;2.23;;;;;;;6.31;74.35;101037.44;5092052;28;20232;-76
2021/05/03 08:25:50;;;;;;;5.83;2.17;;;;;;;6.36;75.06;101046.16;5076103;28;20203;-75
2021/05/03 08:28:16;;;;;;;4.40;2.77;;;;;;;6.35;75.01;101033.81;5076396;28;20167;-76
2021/05/03 08:30:42;;;;;;;3.87;1.80;;;;;;;6.36;74.41;101055.88;5073122;28;20174;-76
2021/05/03 08:33:07;;;;;;;2.83;2.23;;;;;;;6.35;73.92;101039.13;5074980;28;20254;-76
2021/05/03 08:35:32;;;;;;;5.63;1.70;;;;;;;6.26;73.63;101036.72;5074832;28;20167;-76
2021/05/03 08:37:58;;;;;;;6.27;2.20;;;;;;;6.16;75.36;101030.88;5074612;28;20170;-75
2021/05/03 08:40:24;;;;;;;6.43;2.07;;;;;;;6.32;74.35;101040.97;5075356;28;20163;-74
2021/05/03 08:42:49;;;;;;;4.87;2.30;;;;;;;6.41;72.75;101038.91;5074875;28;20647;-75
2021/05/03 08:45:15;;;;;;;2.50;1.63;;;;;;;6.66;72.25;101044.25;5075076;28;20194;-76
2021/05/03 08:47:42;;;;;;;2.83;1.63;;;;;;;6.86;71.59;101038.28;5091075;28;20175;-76
2021/05/03 08:50:16;;;;;;;5.00;2.20;;;;;;;7.26;70.29;101044.84;5075360;28;20185;-75
2021/05/03 08:52:45;;;;;;;3.53;2.17;;;;;;;7.32;69.39;101044.63;5074850;28;20190;-75
2021/05/03 08:55:12;;;;;;;5.43;1.77;;;;;;;7.33;69.19;101031.28;5074754;28;20665;-77
2021/05/03 08:57:38;;;;;;;2.93;1.20;;;;;;;7.32;69.14;101034.00;5076489;28;20178;-75
2021/05/03 09:00:05;;;;;;;4.00;1.70;;;;;;;7.37;67.98;101038.22;5076737;28;20177;-76
2021/05/03 09:02:31;;;;;;;3.20;1.63;;;;;;;7.26;68.30;101042.19;5074857;28;20198;-75
2021/05/03 09:04:56;;;;;;;4.43;2.30;;;;;;;7.19;67.79;101026.50;5076150;28;20558;-76
2021/05/03 09:07:22;;;;;;;2.63;1.53;;;;;;;7.18;67.36;101034.50;5075520;28;20181;-74
2021/05/03 09:09:49;;;;;;;4.50;1.53;;;;;;;7.01;68.50;101037.75;5074728;28;20268;-75
2021/05/03 09:12:16;;;;;;;3.77;2.03;;;;;;;6.93;69.45;101042.47;5075214;28;20191;-74
2021/05/03 09:14:47;;;;;;;3.10;1.73;;;;;;;7.22;69.03;101042.31;5075822;28;20165;-75
2021/05/03 09:17:28;;;;;;;5.17;1.70;;;;;;;7.72;67.04;101042.22;5075744;28;20165;-74
2021/05/03 09:19:58;;;;;;;2.93;1.60;;;;;;;8.12;64.00;101044.22;5073100;28;20638;-75
2021/05/03 09:22:41;;;;;;;5.87;1.47;;;;;;;8.18;64.18;101042.25;5074499;28;20536;-75
2021/05/03 09:25:14;;;;;;;5.30;2.10;;;;;;;8.33;63.58;101033.66;5089837;28;20277;-76
2021/05/03 09:27:39;;;;;;;1.87;1.23;;;;;;;8.39;62.27;101041.44;5090346;28;20248;-75
2021/05/03 09:30:05;;;;;;;4.10;1.77;;;;;;;8.28;62.31;101047.16;5073131;28;20205;-76
2021/05/03 09:32:32;;;;;;;5.40;2.23;;;;;;;7.98;63.51;101040.38;5074701;28;20197;-75
2021/05/03 09:34:57;;;;;;;2.20;1.30;;;;;;;8.08;62.89;101031.97;5076607;28;20176;-75
2021/05/03 09:37:38;;;;;;;3.70;1.53;;;;;;;8.20;62.03;101045.75;5079394;28;20170;-75
2021/05/03 09:40:08;;;;;;;3.37;1.60;;;;;;;8.43;59.30;101049.22;5078298;28;20163;-75
2021/05/03 09:42:43;;;;;;;4.33;2.23;;;;;;;8.80;58.99;101047.69;5078137;28;20685;-76
2021/05/03 09:45:14;;;;;;;3.33;1.13;;;;;;;8.73;58.42;101031.13;5093691;28;20194;-75
2021/05/03 09:47:40;;;;;;;4.17;1.30;;;;;;;8.95;58.13;101028.44;5078675;28;20187;-75
2021/05/03 09:50:09;;;;;;;2.67;1.10;;;;;;;8.82;57.32;101037.00;5078647;28;20197;-76
2021/05/03 09:52:35;;;;;;;3.13;1.00;;;;;;;8.65;57.35;101033.25;5111234;22;20249;-76
2021/05/03 09:55:00;;;;;;;3.33;1.73;;;;;;;8.69;57.09;101028.66;5095349;28;20630;-75
2021/05/03 09:57:25;;;;;;;2.63;1.60;;;;;;;9.00;56.65;101029.09;5094972;28;20648;-76
2021/05/03 09:59:54;;;;;;;3.63;1.33;;;;;;;8.74;57.85;101029.34;5095232;28;20212;-77
2021/05/03 10:02:34;;;;;;;3.73;1.80;;;;;;;8.52;59.39;101023.16;5095335;28;20186;-76
2021/05/03 10:05:09;;;;;;;4.53;1.67;;;;;;;8.61;56.15;101036.09;5095276;28;20194;-76
2021/05/03 10:07:38;;;;;;;3.43;1.10;;;;;;;8.78;55.73;101028.28;5095317;28;20168;-76
2021/05/03 10:10:08;;;;;;;3.23;1.50;;;;;;;9.25;55.41;101030.66;5095080;28;20208;-77
2021/05/03 10:12:33;;;;;;;1.67;1.07;;;;;;;9.84;54.35;101019.97;5095078;28;20201;-77
2021/05/03 10:15:01;;;;;;;2.80;1.30;;;;;;;10.02;52.83;101000.41;5077903;28;20178;-76
2021/05/03 10:17:29;;;;;;;2.00;0.90;;;;;;;10.23;51.98;101022.56;5094926;28;20227;-76
2021/05/03 10:19:58;;;;;;;3.23;0.90;;;;;;;10.21;52.29;101026.25;5077743;28;20214;-76
2021/05/03 10:22:24;;;;;;;2.47;0.77;;;;;;;9.92;52.68;101009.78;5078406;28;20342;-75
2021/05/03 10:24:52;;;;;;;2.30;1.00;;;;;;;10.12;52.17;101016.88;5078511;28;20614;-76
2021/05/03 10:27:18;;;;;;;3.10;0.83;;;;;;;9.85;51.97;101028.81;5094864;28;20179;-76
2021/05/03 10:29:44;;;;;;;2.77;1.00;;;;;;;9.48;51.89;101025.19;5094373;28;20185;-76
2021/05/03 10:32:21;;;;;;;2.77;1.10;;;;;;;9.30;52.55;101026.91;5077313;28;20250;-76
2021/05/03 10:34:52;;;;;;;1.97;1.00;;;;;;;9.17;53.85;101025.69;5094708;28;20671;-76
2021/05/03 10:37:30;;;;;;;1.83;1.10;;;;;;;9.19;54.39;101029.16;5094741;28;20250;-76
2021/05/03 10:40:00;;;;;;;2.17;0.80;;;;;;;9.24;54.55;101029.81;5096029;28;20197;-76
2021/05/03 10:42:25;;;;;;;1.83;0.70;;;;;;;9.23;53.06;101033.41;5094616;28;20194;-76
2021/05/03 10:45:13;;;;;;;1.63;0.83;;;;;;;9.25;52.66;101012.88;5097075;28;20208;-76
2021/05/03 10:47:46;;;;;;;1.83;1.10;;;;;;;9.04;53.13;101020.03;5097455;28;20215;-75
2021/05/03 10:53:19;;;;;;;1.20;0.83;;;;;;;8.33;56.35;101018.63;5087472;28;20194;-75
2021/05/03 10:56:01;;;;;;;1.60;0.80;;;;;;;7.99;57.91;101016.41;5096637;28;20226;-75
2021/05/03 10:58:26;;;;;;;1.17;0.80;;;;;;;8.01;57.23;101029.63;5096237;28;20190;-75
2021/05/03 11:01:03;;;;;;;2.80;0.87;;;;;;;8.16;56.43;101018.38;5094202;28;20202;-75
2021/05/03 11:03:59;;;;;;;1.90;0.83;;;;;;;8.22;55.40;101023.47;5095487;28;20194;-75
2021/05/03 11:06:37;;;;;;;1.77;0.90;;;;;;;8.44;56.01;101024.34;5096234;28;20260;-74
2021/05/03 11:09:39;;;;;;;1.67;1.00;;;;;;;8.24;57.72;101020.75;5094775;28;20181;-75
2021/05/03 11:12:12;;;;;;;1.53;1.10;;;;;;;7.99;57.53;101027.03;5093639;28;20203;-75
2021/05/03 11:14:40;;;;;;;2.40;1.00;;;;;;;7.74;59.39;101019.13;5094812;28;20487;-75
2021/05/03 11:17:10;;;;;;;3.13;1.13;;;;;;;7.68;58.94;101027.34;5093379;28;20519;-75
2021/05/03 11:19:50;;;;;;;3.43;1.10;;;;;;;8.04;59.12;101021.53;5076898;28;20157;-76
2021/05/03 11:22:19;;;;;;;4.13;0.80;;;;;;;8.70;56.33;101022.41;5093215;28;20203;-75
2021/05/03 11:24:51;;;;;;;3.50;0.97;;;;;;;9.19;55.59;101029.16;5093377;28;20202;-76
2021/05/03 11:29:54;;;;;;;1.53;0.83;;;;;;;9.34;53.31;101039.13;5093450;28;20622;-76
2021/05/03 11:32:31;;;;;;;2.77;0.93;;;;;;;9.01;56.56;101033.50;5093481;28;20185;-75
2021/05/03 11:35:24;;;;;;;3.67;0.80;;;;;;;8.39;57.84;101023.69;5093809;28;20598;-75
2021/05/03 11:37:48;;;;;;;2.80;1.00;;;;;;;7.96;59.46;101044.91;5092419;28;20186;-75